Time;durP1;ratioP1;P1;durP2;ratioP2;P2;SDS_P1;SDS_P2;PMS_P1;PMS_P2;Temp;Humidity;BMP_temperature;BMP_pressure;BME280_temperature;BME280_humidity;BME280_pressure;Samples;Min_cycle;Max_cycle;Signal;HPM_P1;HPM_P2
2023/10/12 00:00:28;;;;;;;15.25;5.78;;;;;;;16.73;nan;100845.81;10347114;28;20517;-85
2023/10/12 00:05:29;;;;;;;16.70;6.30;;;;;;;16.81;nan;100856.56;10358302;28;20379;-83
2023/10/12 00:10:40;;;;;;;11.15;4.93;;;;;;;16.86;nan;100868.13;10306808;28;20058;-85
2023/10/12 00:15:45;;;;;;;15.80;6.45;;;;;;;16.86;nan;100866.38;10340983;28;20129;-84
2023/10/12 00:20:51;;;;;;;19.38;5.63;;;;;;;16.76;nan;100866.13;10364598;28;20061;-85
2023/10/12 00:25:58;;;;;;;18.05;5.82;;;;;;;16.74;nan;100879.31;10362475;28;20046;-84
2023/10/12 00:31:05;;;;;;;14.07;6.28;;;;;;;16.59;nan;100901.00;10364742;28;20037;-84
2023/10/12 00:36:19;;;;;;;15.10;6.55;;;;;;;16.49;nan;100893.69;10365703;28;20042;-85
2023/10/12 00:41:24;;;;;;;16.70;7.20;;;;;;;16.37;nan;100892.56;10377827;28;20100;-85
2023/10/12 00:51:26;;;;;;;13.38;5.47;;;;;;;16.26;nan;100917.81;10364150;28;20103;-84
2023/10/12 00:56:28;;;;;;;12.13;5.43;;;;;;;16.14;nan;100923.69;10361489;28;20045;-84
2023/10/12 01:01:31;;;;;;;15.02;7.55;;;;;;;15.92;nan;100933.69;10362970;28;20100;-83
2023/10/12 01:06:33;;;;;;;16.42;5.97;;;;;;;15.77;nan;100930.59;10362095;28;20073;-83
2023/10/12 01:11:37;;;;;;;19.70;8.20;;;;;;;15.55;nan;100948.47;10364003;28;20049;-83
2023/10/12 01:16:55;;;;;;;15.73;6.90;;;;;;;15.53;nan;100956.31;10363031;28;20069;-82
2023/10/12 01:21:55;;;;;;;21.50;7.55;;;;;;;15.48;nan;100964.97;10340107;28;20038;-82
2023/10/12 01:26:56;;;;;;;15.10;7.95;;;;;;;15.46;nan;100958.75;10362910;28;20072;-82
2023/10/12 01:37:21;;;;;;;14.90;9.48;;;;;;;15.25;nan;100981.88;10361540;28;20112;-83
2023/10/12 01:42:35;;;;;;;15.32;8.63;;;;;;;15.09;nan;100988.44;10373385;28;20447;-82
2023/10/12 01:47:37;;;;;;;18.25;9.70;;;;;;;14.92;nan;100995.78;10363402;28;20045;-82
2023/10/12 01:52:37;;;;;;;23.00;10.60;;;;;;;14.75;nan;101018.06;10360985;28;20456;-81
2023/10/12 01:57:45;;;;;;;23.85;11.40;;;;;;;14.56;nan;101032.34;10361383;28;20044;-81
2023/10/12 02:03:00;;;;;;;18.45;11.68;;;;;;;14.35;nan;101047.44;10357852;28;20041;-81
2023/10/12 02:08:05;;;;;;;18.55;12.35;;;;;;;14.20;nan;101042.53;10375965;28;20119;-81
2023/10/12 02:13:07;;;;;;;21.13;12.70;;;;;;;14.08;nan;101040.34;10332203;28;20140;-80
2023/10/12 02:18:11;;;;;;;21.50;12.43;;;;;;;13.97;nan;101046.97;10356303;28;20049;-82
2023/10/12 02:23:12;;;;;;;21.48;14.23;;;;;;;13.91;nan;101052.00;10359621;28;20046;-81
2023/10/12 02:28:13;;;;;;;22.08;14.90;;;;;;;13.83;nan;101054.34;10357796;28;20441;-82
2023/10/12 02:33:17;;;;;;;24.77;15.43;;;;;;;13.83;nan;101049.09;10349747;28;20045;-81
2023/10/12 02:38:20;;;;;;;22.33;14.20;;;;;;;13.77;nan;101049.75;10356267;28;20041;-81
2023/10/12 02:43:21;;;;;;;22.85;14.13;;;;;;;13.76;nan;101039.19;10375406;28;20045;-81
2023/10/12 02:48:25;;;;;;;47.17;17.63;;;;;;;13.68;nan;100999.44;10358030;28;20085;-81
2023/10/12 02:53:30;;;;;;;21.13;14.82;;;;;;;13.58;nan;100981.50;10342828;28;20217;-81
2023/10/12 02:58:32;;;;;;;22.70;13.02;;;;;;;13.59;nan;100960.56;10371351;28;20037;-80
2023/10/12 03:03:37;;;;;;;23.30;16.40;;;;;;;13.54;nan;100967.38;10355077;28;20046;-79
2023/10/12 03:14:30;;;;;;;33.95;17.73;;;;;;;13.49;nan;101048.69;10346276;28;20045;-79
2023/10/12 03:19:24;;;;;;;30.85;17.85;;;;;;;13.47;nan;101041.59;10319048;28;20034;-80
2023/10/12 03:24:38;;;;;;;27.55;15.68;;;;;;;13.48;nan;101023.25;10343177;28;20038;-79
2023/10/12 03:29:45;;;;;;;29.83;18.10;;;;;;;13.45;nan;100993.31;10336570;28;20038;-80
2023/10/12 03:39:59;;;;;;;29.23;18.38;;;;;;;13.41;nan;100970.34;10334328;28;20502;-80
2023/10/12 03:45:13;;;;;;;28.48;17.95;;;;;;;13.43;nan;100961.69;10338208;28;20041;-80
2023/10/12 03:50:17;;;;;;;28.27;19.75;;;;;;;13.38;nan;100952.72;10354594;28;20079;-80
2023/10/12 03:55:42;;;;;;;33.10;18.30;;;;;;;13.35;nan;100945.63;10356146;28;20042;-80
2023/10/12 04:00:48;;;;;;;30.70;17.85;;;;;;;13.34;nan;100943.84;10353543;28;20425;-81
2023/10/12 04:05:54;;;;;;;28.52;17.85;;;;;;;13.35;nan;100945.63;10351990;28;20046;-79
2023/10/12 04:21:39;;;;;;;40.92;21.42;;;;;;;13.39;nan;100978.16;10354209;28;20085;-82
2023/10/12 04:32:37;;;;;;;30.23;18.38;;;;;;;13.36;nan;100980.69;10354895;28;20088;-81
2023/10/12 04:37:11;;;;;;;34.03;20.58;;;;;;;13.35;nan;100989.41;10351622;28;20069;-84
2023/10/12 04:42:20;;;;;;;29.38;20.67;;;;;;;13.34;nan;100978.00;10355002;28;20121;-81
2023/10/12 04:47:24;;;;;;;35.57;20.90;;;;;;;13.34;nan;100974.47;10355832;28;20096;-82
2023/10/12 04:52:26;;;;;;;27.73;17.85;;;;;;;13.39;nan;100970.28;10356948;28;20130;-82
2023/10/12 04:57:27;;;;;;;;;;;;;;;13.40;nan;100963.31;10337257;28;20112;-82
2023/10/12 05:07:28;;;;;;;33.53;20.17;;;;;;;13.39;nan;100972.03;10359439;28;24709;-82
2023/10/12 05:12:28;;;;;;;33.85;18.80;;;;;;;13.39;nan;100966.78;10352697;28;20568;-83
2023/10/12 05:17:29;;;;;;;27.95;19.63;;;;;;;13.35;nan;100971.00;10353771;28;20117;-82
2023/10/12 05:22:29;;;;;;;37.40;21.77;;;;;;;13.35;nan;100987.69;10338554;28;20042;-81
2023/10/12 05:27:38;;;;;;;35.08;20.48;;;;;;;13.37;nan;100982.47;10338962;28;20066;-85
2023/10/12 05:32:43;;;;;;;30.13;19.85;;;;;;;13.38;nan;100972.88;10361823;28;20050;-81
2023/10/12 05:37:49;;;;;;;31.30;19.63;;;;;;;13.35;nan;100963.09;10355095;28;20037;-80
2023/10/12 05:42:50;;;;;;;35.75;21.55;;;;;;;13.34;nan;100982.34;10360078;28;20057;-80
2023/10/12 05:47:54;;;;;;;31.83;18.33;;;;;;;13.35;nan;101000.81;10351001;28;20053;-81
2023/10/12 05:53:01;;;;;;;36.83;21.30;;;;;;;13.33;nan;101009.47;10331710;28;20061;-82
2023/10/12 05:58:15;;;;;;;27.42;18.55;;;;;;;13.38;nan;101018.44;10372927;28;20042;-81
2023/10/12 06:03:15;;;;;;;32.90;23.05;;;;;;;13.44;nan;101013.44;10326198;28;20108;-82
2023/10/12 06:08:19;;;;;;;44.40;19.48;;;;;;;13.47;nan;101012.69;10352629;28;20205;-82
2023/10/12 06:13:23;;;;;;;29.60;19.65;;;;;;;13.48;nan;101017.09;10350160;28;20129;-83
2023/10/12 06:18:30;;;;;;;36.65;20.38;;;;;;;13.50;nan;101020.69;10359467;28;20038;-80
2023/10/12 06:23:31;;;;;;;38.47;19.08;;;;;;;13.48;nan;101028.50;10360076;28;20139;-83
2023/10/12 06:28:31;;;;;;;30.95;18.77;;;;;;;13.54;nan;101027.84;10343341;28;20113;-80
2023/10/12 06:33:32;;;;;;;30.60;17.15;;;;;;;13.51;nan;101025.97;10357691;28;20613;-80
2023/10/12 06:38:39;;;;;;;31.70;19.25;;;;;;;13.50;nan;101023.31;10374154;28;20057;-82
2023/10/12 06:48:44;;;;;;;32.28;18.52;;;;;;;13.59;nan;101025.38;10361581;28;20115;-79
2023/10/12 06:53:52;;;;;;;30.70;17.35;;;;;;;13.66;nan;101040.56;10360530;28;20037;-79
2023/10/12 07:04:19;;;;;;;27.00;15.90;;;;;;;13.65;nan;101044.03;10345390;28;20045;-82
2023/10/12 07:09:27;;;;;;;26.73;16.67;;;;;;;13.76;nan;101033.91;10356531;28;20038;-80
2023/10/12 07:14:42;;;;;;;22.90;16.08;;;;;;;13.78;nan;101043.66;10358804;28;20026;-80
2023/10/12 07:19:53;;;;;;;23.35;14.40;;;;;;;13.80;nan;101036.72;10356819;28;20038;-80
2023/10/12 07:24:56;;;;;;;28.08;13.75;;;;;;;13.88;nan;101036.09;10356888;28;20068;-81
2023/10/12 07:30:22;;;;;;;23.67;16.73;;;;;;;13.93;nan;101043.34;10357700;28;20038;-81
2023/10/12 07:35:32;;;;;;;26.05;16.08;;;;;;;14.01;nan;101048.84;10342012;28;20053;-82
2023/10/12 07:40:37;;;;;;;36.25;18.70;;;;;;;14.03;nan;101055.06;10354926;28;20122;-81
2023/10/12 07:45:38;;;;;;;26.50;14.20;;;;;;;14.11;nan;101060.63;10331375;28;20073;-79
2023/10/12 07:50:45;;;;;;;24.52;16.27;;;;;;;14.17;nan;101066.13;10331516;28;20056;-84
2023/10/12 07:55:50;;;;;;;30.08;16.55;;;;;;;14.22;nan;101068.91;10349400;28;20061;-81
2023/10/12 08:01:19;;;;;;;24.90;16.77;;;;;;;14.29;nan;101063.00;10346825;28;20045;-79
2023/10/12 08:06:15;;;;;;;23.10;14.73;;;;;;;14.40;nan;101052.88;10334928;28;20038;-81
2023/10/12 08:11:27;;;;;;;24.13;13.95;;;;;;;14.57;nan;101057.84;10349195;28;20047;-82
2023/10/12 08:16:28;;;;;;;20.48;12.80;;;;;;;14.61;nan;101057.09;10312505;28;20046;-82
2023/10/12 08:21:32;;;;;;;23.52;15.15;;;;;;;14.67;nan;101055.53;10316435;28;20141;-82
2023/10/12 08:26:47;;;;;;;24.05;15.18;;;;;;;14.76;nan;101054.09;10354455;28;20042;-82
2023/10/12 08:32:33;;;;;;;25.08;12.38;;;;;;;14.90;nan;101050.19;10338315;28;20042;-82
2023/10/12 08:37:26;;;;;;;37.38;13.93;;;;;;;15.06;nan;101042.78;10364269;28;20034;-81
2023/10/12 08:42:36;;;;;;;;;;;;;;;15.26;nan;101041.66;10351287;28;20046;-82
2023/10/12 08:47:49;;;;;;;25.65;13.05;;;;;;;15.50;nan;101037.09;10392091;28;19928;-80
2023/10/12 08:52:52;;;;;;;19.50;11.85;;;;;;;15.66;nan;101022.63;10361406;28;20073;-81
2023/10/12 08:58:30;;;;;;;20.45;12.52;;;;;;;15.90;nan;101009.28;10354269;28;20046;-82
2023/10/12 09:03:44;;;;;;;21.52;12.95;;;;;;;16.29;nan;100997.09;10351198;28;20145;-81
2023/10/12 09:08:46;;;;;;;19.10;11.90;;;;;;;16.78;nan;100984.25;10352914;28;20551;-81
2023/10/12 09:13:47;;;;;;;14.27;8.68;;;;;;;16.99;nan;100983.00;10359516;28;20047;-81
2023/10/12 09:18:49;;;;;;;12.50;8.53;;;;;;;16.92;nan;100991.63;10363192;28;20042;-82
2023/10/12 09:24:14;;;;;;;15.05;10.38;;;;;;;16.82;nan;100993.13;10355598;28;20030;-89
2023/10/12 09:29:24;;;;;;;17.15;9.93;;;;;;;16.96;nan;101015.50;10332114;28;20164;-82
2023/10/12 09:39:34;;;;;;;17.23;11.45;;;;;;;17.13;nan;101017.69;10372111;28;20104;-88
2023/10/12 09:44:39;;;;;;;20.30;11.45;;;;;;;17.58;nan;100998.38;10351648;28;20104;-88
2023/10/12 09:49:46;;;;;;;20.98;10.10;;;;;;;17.71;nan;101006.56;10370313;28;20065;-82
2023/10/12 09:55:25;;;;;;;16.48;10.18;;;;;;;17.39;nan;101020.94;10344702;28;20030;-80
2023/10/12 10:00:55;;;;;;;18.42;9.27;;;;;;;17.49;nan;101018.47;10348068;28;20042;-82
2023/10/12 10:05:52;;;;;;;16.67;9.63;;;;;;;17.72;nan;101013.66;10346609;28;20328;-82
2023/10/12 10:10:57;;;;;;;;;;;;;;;18.07;nan;101005.56;10362297;28;20038;-82
2023/10/12 10:16:00;;;;;;;18.58;8.98;;;;;;;18.42;nan;101018.56;10365564;28;19928;-83
2023/10/12 10:21:06;;;;;;;17.60;7.90;;;;;;;18.52;nan;101022.28;10373458;28;20540;-83
2023/10/12 10:26:19;;;;;;;16.90;8.55;;;;;;;18.23;nan;101013.78;10358876;28;20688;-81
2023/10/12 10:31:41;;;;;;;25.98;9.70;;;;;;;17.93;nan;101007.00;10357127;28;20052;-82
2023/10/12 10:36:44;;;;;;;19.75;9.77;;;;;;;17.74;nan;101019.88;10353807;28;20046;-83
2023/10/12 10:42:09;;;;;;;18.17;9.27;;;;;;;17.69;nan;101021.53;10350265;28;20061;-83
2023/10/12 10:47:10;;;;;;;17.73;9.18;;;;;;;17.73;nan;101016.34;10368051;28;20050;-83
2023/10/12 10:52:14;;;;;;;18.33;8.85;;;;;;;17.59;nan;101016.03;10373940;28;20200;-82
2023/10/12 10:57:15;;;;;;;15.20;8.68;;;;;;;17.37;nan;101020.00;10351032;28;20046;-83
2023/10/12 11:02:16;;;;;;;21.13;8.55;;;;;;;17.36;nan;101012.91;10339426;28;20505;-82
2023/10/12 11:07:19;;;;;;;14.75;8.45;;;;;;;17.36;nan;101017.31;10342089;28;20057;-84
2023/10/12 11:12:24;;;;;;;14.45;7.28;;;;;;;17.09;nan;101006.16;10347001;28;20053;-84
2023/10/12 11:17:30;;;;;;;16.30;9.00;;;;;;;16.95;nan;100973.19;10349150;28;20475;-81
2023/10/12 11:22:33;;;;;;;14.57;7.82;;;;;;;16.80;nan;100977.25;10366820;28;20049;-80
2023/10/12 11:27:35;;;;;;;13.30;8.35;;;;;;;16.56;nan;100993.38;10357948;28;20104;-81
2023/10/12 11:32:55;;;;;;;15.82;7.95;;;;;;;16.49;nan;100999.38;10350217;28;20045;-83
2023/10/12 11:37:57;;;;;;;15.77;7.97;;;;;;;16.66;nan;100999.81;10332778;28;20410;-80
2023/10/12 11:42:58;;;;;;;15.43;7.50;;;;;;;16.86;nan;101005.56;10354677;28;20041;-82
2023/10/12 11:48:21;;;;;;;13.88;8.45;;;;;;;17.04;nan;100994.56;10350424;28;20458;-80
2023/10/12 11:53:24;;;;;;;20.38;9.48;;;;;;;17.13;nan;100993.88;10346429;28;20034;-80
2023/10/12 11:58:25;;;;;;;14.98;8.25;;;;;;;17.06;nan;100987.56;10371484;28;20041;-79
2023/10/12 12:03:26;;;;;;;18.30;9.55;;;;;;;16.98;nan;100992.66;10357764;28;20565;-80
2023/10/12 12:08:27;;;;;;;18.97;8.10;;;;;;;16.95;nan;100996.97;10345503;28;20044;-79
2023/10/12 12:13:27;;;;;;;14.55;9.05;;;;;;;17.11;nan;100993.88;10357185;28;20560;-81
2023/10/12 12:18:29;;;;;;;17.02;8.15;;;;;;;17.13;nan;100975.38;10342107;28;20088;-82
2023/10/12 12:23:35;;;;;;;15.07;8.73;;;;;;;17.20;nan;100979.06;10345057;28;20038;-80
2023/10/12 12:28:45;;;;;;;14.98;8.88;;;;;;;17.12;nan;100971.84;10351275;28;20490;-82
2023/10/12 12:33:46;;;;;;;16.63;8.73;;;;;;;17.00;nan;100968.94;10366887;28;20057;-77
2023/10/12 12:38:52;;;;;;;24.30;8.82;;;;;;;17.02;nan;100981.31;10355754;28;20556;-77
2023/10/12 12:43:53;;;;;;;15.32;8.63;;;;;;;17.21;nan;100978.19;10351842;28;20038;-77
2023/10/12 12:48:53;;;;;;;16.75;7.97;;;;;;;17.05;nan;100969.00;10352584;28;20100;-77
2023/10/12 12:53:54;;;;;;;19.45;9.88;;;;;;;17.21;nan;100960.56;10356023;28;20125;-77
2023/10/12 12:58:54;;;;;;;14.13;7.07;;;;;;;17.48;nan;100956.72;10328687;28;20085;-77
2023/10/12 13:03:55;;;;;;;16.27;8.60;;;;;;;17.74;nan;100957.25;10330859;28;20035;-77
2023/10/12 13:08:55;;;;;;;16.25;9.68;;;;;;;17.81;nan;100931.78;10353252;28;20378;-78
2023/10/12 13:13:56;;;;;;;11.38;6.68;;;;;;;17.93;nan;100943.47;10350978;28;20829;-80
2023/10/12 13:18:56;;;;;;;16.37;8.00;;;;;;;17.80;nan;100940.59;10315178;28;20038;-84
2023/10/12 13:23:57;;;;;;;15.07;8.13;;;;;;;17.78;nan;100944.09;10318886;28;20038;-82
2023/10/12 13:28:58;;;;;;;14.23;7.97;;;;;;;17.59;nan;100943.72;10323694;28;20112;-82
2023/10/12 13:34:02;;;;;;;14.15;7.72;;;;;;;17.41;nan;100954.81;10323561;28;20042;-81
2023/10/12 13:39:09;;;;;;;18.13;7.68;;;;;;;17.29;nan;100948.41;10321633;28;20046;-83
2023/10/12 13:44:13;;;;;;;13.43;7.75;;;;;;;17.27;nan;100946.59;10320642;28;21775;-85
2023/10/12 13:49:13;;;;;;;18.83;7.00;;;;;;;17.19;nan;100932.31;10319044;28;20042;-81
2023/10/12 13:54:14;;;;;;;12.50;6.75;;;;;;;17.21;nan;100927.94;10348339;28;20042;-81
2023/10/12 13:59:16;;;;;;;10.77;5.63;;;;;;;17.11;nan;100962.13;10357650;28;20133;-82
2023/10/12 14:04:28;;;;;;;14.45;6.90;;;;;;;16.96;nan;100975.84;10358673;28;20052;-79
2023/10/12 14:09:31;;;;;;;13.57;7.25;;;;;;;16.79;nan;100974.56;10348466;28;20303;-79
2023/10/12 14:14:31;;;;;;;;;;;;;;;16.71;nan;100966.47;10356923;28;20038;-80
2023/10/12 14:19:35;;;;;;;9.83;6.37;;;;;;;16.78;nan;100968.41;10358525;28;19928;-80
2023/10/12 14:24:36;;;;;;;13.65;7.90;;;;;;;16.94;nan;100963.47;10372698;28;20307;-79
2023/10/12 14:29:36;;;;;;;14.00;6.78;;;;;;;17.04;nan;100947.00;10297812;28;20093;-81
2023/10/12 14:34:38;;;;;;;11.40;6.47;;;;;;;17.10;nan;100933.00;10339274;28;20196;-81
2023/10/12 14:39:39;;;;;;;13.77;6.30;;;;;;;17.21;nan;100934.13;10345058;28;20041;-81
2023/10/12 14:44:41;;;;;;;13.67;6.60;;;;;;;17.12;nan;100928.63;10331541;28;20041;-80
2023/10/12 14:49:41;;;;;;;13.77;7.50;;;;;;;16.95;nan;100931.75;10379509;28;20398;-82
2023/10/12 14:54:42;;;;;;;12.65;6.97;;;;;;;16.82;nan;100927.97;10353925;28;20124;-80
2023/10/12 14:59:42;;;;;;;12.07;6.32;;;;;;;16.74;nan;100924.25;10375530;28;20056;-80
2023/10/12 15:04:43;;;;;;;12.98;6.38;;;;;;;16.71;nan;100927.69;10358572;28;20177;-81
2023/10/12 15:09:48;;;;;;;11.38;7.63;;;;;;;16.66;nan;100924.06;10355939;28;20042;-81
2023/10/12 15:14:50;;;;;;;13.52;7.47;;;;;;;16.58;nan;100928.25;10358812;28;20065;-81
2023/10/12 15:19:51;;;;;;;14.93;7.00;;;;;;;16.40;nan;100931.38;10355716;28;20062;-81
2023/10/12 15:24:52;;;;;;;14.35;7.68;;;;;;;15.94;nan;100947.81;10356969;28;20128;-80
2023/10/12 15:29:52;;;;;;;14.38;8.85;;;;;;;15.56;nan;100966.94;10372324;28;20117;-79
2023/10/12 15:34:56;;;;;;;12.93;8.50;;;;;;;15.38;nan;100976.97;10359620;28;20072;-78
2023/10/12 15:39:56;;;;;;;19.92;10.63;;;;;;;15.26;nan;100988.06;10357482;28;20102;-78
2023/10/12 15:44:56;;;;;;;18.10;9.27;;;;;;;15.17;nan;100990.41;10355742;28;20236;-77
2023/10/12 15:49:58;;;;;;;14.80;11.10;;;;;;;15.12;nan;101004.34;10355048;28;20040;-78
2023/10/12 15:54:59;;;;;;;17.00;11.27;;;;;;;15.06;nan;101009.41;10354071;28;20041;-78
2023/10/12 15:59:59;;;;;;;19.88;12.50;;;;;;;15.04;nan;101008.47;10357245;28;20792;-79
2023/10/12 16:05:05;;;;;;;22.20;13.63;;;;;;;15.00;nan;101003.97;10356622;28;20129;-78
2023/10/12 16:10:06;;;;;;;22.27;12.50;;;;;;;14.99;nan;101020.63;10355487;28;20034;-77
2023/10/12 16:15:08;;;;;;;21.33;13.82;;;;;;;14.86;nan;101023.69;10353145;28;20038;-79
2023/10/12 16:20:09;;;;;;;;;;;;;;;14.80;nan;101029.66;10325543;28;20046;-79
2023/10/12 16:25:17;;;;;;;18.50;11.57;;;;;;;14.77;nan;101019.91;10345178;28;19928;-78
2023/10/12 16:30:18;;;;;;;25.25;13.27;;;;;;;14.75;nan;101023.31;10355199;28;20041;-79
2023/10/12 16:35:25;;;;;;;24.40;14.48;;;;;;;14.75;nan;101028.59;10355410;28;20169;-78
2023/10/12 16:40:28;;;;;;;21.35;14.40;;;;;;;14.70;nan;101017.94;10339604;28;20133;-79
2023/10/12 16:45:28;;;;;;;25.20;17.10;;;;;;;14.67;nan;101031.84;10355868;28;20073;-79
2023/10/12 16:50:29;;;;;;;26.52;17.55;;;;;;;14.61;nan;101028.13;10357479;28;20457;-79
2023/10/12 16:55:30;;;;;;;25.48;18.58;;;;;;;14.66;nan;101029.16;10360967;28;20045;-79
2023/10/12 17:00:32;;;;;;;28.37;20.17;;;;;;;14.62;nan;101035.19;10364511;28;20088;-79
2023/10/12 17:05:32;;;;;;;25.63;18.10;;;;;;;14.62;nan;101037.81;10361305;28;20301;-80
2023/10/12 17:10:34;;;;;;;33.05;22.52;;;;;;;14.62;nan;101038.69;10360948;28;20188;-79
2023/10/12 17:15:34;;;;;;;31.70;21.45;;;;;;;14.60;nan;101035.09;10360754;28;20049;-79
2023/10/12 17:20:35;;;;;;;28.98;22.42;;;;;;;14.61;nan;101034.25;10361722;28;20137;-80
2023/10/12 17:25:36;;;;;;;35.83;21.95;;;;;;;14.64;nan;101037.00;10363190;28;20125;-79
2023/10/12 17:30:41;;;;;;;30.87;22.33;;;;;;;14.64;nan;101031.75;10358697;28;20121;-80
2023/10/12 17:35:44;;;;;;;31.42;21.65;;;;;;;14.64;nan;101020.31;10363163;28;20046;-78
2023/10/12 17:40:48;;;;;;;39.22;22.83;;;;;;;14.64;nan;101022.97;10361830;28;20125;-78
2023/10/12 17:45:54;;;;;;;27.40;20.60;;;;;;;14.70;nan;101027.56;10362949;28;20057;-78
2023/10/12 17:50:55;;;;;;;34.10;20.80;;;;;;;14.68;nan;101030.13;10348952;28;20034;-79
2023/10/12 17:55:55;;;;;;;41.72;22.05;;;;;;;14.70;nan;101022.28;10361514;28;20121;-81
2023/10/12 18:00:56;;;;;;;26.58;20.27;;;;;;;14.58;nan;101020.13;10358303;28;20046;-79
2023/10/12 18:05:57;;;;;;;32.17;20.60;;;;;;;14.47;nan;101020.66;10327615;28;20055;-81
2023/10/12 18:11:02;;;;;;;32.42;22.42;;;;;;;14.38;nan;101026.47;10323073;28;20165;-81
2023/10/12 18:16:06;;;;;;;28.08;19.67;;;;;;;14.28;nan;101027.00;10344433;28;20376;-81
2023/10/12 18:21:07;;;;;;;35.15;20.83;;;;;;;14.19;nan;101031.94;10325056;28;20042;-81
2023/10/12 18:26:12;;;;;;;34.50;22.93;;;;;;;14.18;nan;101022.25;10360544;28;20060;-81
2023/10/12 18:31:13;;;;;;;35.22;22.52;;;;;;;14.15;nan;101024.78;10358990;28;20129;-80
2023/10/12 18:36:13;;;;;;;27.58;22.30;;;;;;;14.27;nan;101019.06;10358297;28;20720;-80
2023/10/12 18:41:17;;;;;;;40.53;25.27;;;;;;;14.42;nan;101031.84;10335292;28;20121;-82
2023/10/12 18:46:19;;;;;;;42.33;28.92;;;;;;;14.47;nan;101027.63;10331576;28;20125;-80
2023/10/12 18:51:23;;;;;;;39.03;25.02;;;;;;;14.57;nan;101029.75;10360459;28;20124;-77
2023/10/12 18:56:24;;;;;;;48.97;32.10;;;;;;;14.62;nan;101028.16;10360513;28;20041;-77
2023/10/12 19:01:25;;;;;;;46.90;28.40;;;;;;;14.61;nan;101029.00;10357068;28;20164;-79
2023/10/12 19:06:26;;;;;;;52.05;30.85;;;;;;;14.67;nan;101033.59;10355301;28;20572;-79
2023/10/12 19:11:26;;;;;;;50.63;31.15;;;;;;;14.71;nan;101027.63;10359691;28;20482;-79
2023/10/12 19:16:29;;;;;;;50.97;32.83;;;;;;;14.81;nan;101028.81;10356259;28;20521;-80
2023/10/12 19:21:30;;;;;;;51.90;29.13;;;;;;;14.75;nan;101024.25;10352512;28;20052;-80
2023/10/12 19:26:30;;;;;;;57.90;33.60;;;;;;;14.80;nan;101025.28;10356579;28;20383;-80
2023/10/12 19:31:31;;;;;;;54.22;33.10;;;;;;;14.87;nan;101025.50;10355835;28;20066;-80
2023/10/12 19:36:31;;;;;;;49.33;31.10;;;;;;;14.93;nan;101023.06;10348430;28;20069;-80
2023/10/12 19:41:32;;;;;;;52.92;34.50;;;;;;;14.98;nan;101006.53;10339066;28;20117;-80
2023/10/12 19:46:32;;;;;;;51.83;34.08;;;;;;;15.01;nan;101002.19;10341318;28;20121;-80
2023/10/12 19:51:33;;;;;;;66.10;35.05;;;;;;;15.06;nan;101006.78;10356034;28;20113;-81
2023/10/12 19:56:34;;;;;;;60.50;38.90;;;;;;;15.04;nan;101005.84;10319239;28;20392;-81
2023/10/12 20:01:46;;;;;;;55.53;34.33;;;;;;;15.09;nan;101009.50;10316182;28;21900;-81
2023/10/12 20:06:47;;;;;;;57.80;34.53;;;;;;;15.15;nan;101011.44;10327175;28;20092;-81
2023/10/12 20:11:48;;;;;;;54.17;35.33;;;;;;;15.15;nan;101002.66;10295988;28;20042;-81
2023/10/12 20:16:49;;;;;;;61.10;35.80;;;;;;;15.23;nan;101007.28;10311180;28;20038;-81
2023/10/12 20:21:49;;;;;;;54.80;34.67;;;;;;;15.24;nan;101011.72;10316021;28;20046;-81
2023/10/12 20:26:50;;;;;;;61.05;35.30;;;;;;;15.23;nan;101009.06;10296349;28;20584;-80
2023/10/12 20:31:51;;;;;;;64.75;34.72;;;;;;;15.20;nan;100999.28;10303072;28;20057;-81
2023/10/12 20:36:51;;;;;;;52.05;30.73;;;;;;;15.11;nan;101002.56;10320665;28;20121;-81
2023/10/12 20:41:52;;;;;;;49.78;32.20;;;;;;;15.00;nan;101000.41;10320091;28;20050;-82
2023/10/12 20:46:52;;;;;;;53.83;31.65;;;;;;;14.89;nan;100990.41;10324163;28;20077;-82
2023/10/12 20:51:53;;;;;;;68.32;35.85;;;;;;;14.95;nan;100990.63;10319834;28;20806;-82
2023/10/12 20:56:56;;;;;;;62.83;31.65;;;;;;;14.80;nan;100996.31;10319578;28;20119;-81
2023/10/12 21:02:04;;;;;;;60.90;32.78;;;;;;;14.80;nan;100990.13;10335908;28;20056;-81
2023/10/12 21:07:05;;;;;;;54.15;34.00;;;;;;;14.89;nan;100992.19;10305777;28;20042;-81
2023/10/12 21:12:14;;;;;;;55.88;34.75;;;;;;;14.92;nan;100987.88;10336370;28;20041;-82
2023/10/12 21:17:33;;;;;;;49.55;31.08;;;;;;;14.92;nan;100985.25;10329249;28;21063;-81
2023/10/12 21:22:33;;;;;;;52.78;32.10;;;;;;;14.95;nan;100977.44;10307314;28;20517;-82
2023/10/12 21:27:37;;;;;;;68.40;37.47;;;;;;;15.04;nan;100971.56;10319323;28;20129;-81
2023/10/12 21:32:39;;;;;;;60.65;35.40;;;;;;;15.06;nan;100963.69;10317458;28;21135;-81
2023/10/12 21:37:40;;;;;;;59.67;34.83;;;;;;;15.02;nan;100959.19;10309685;28;20095;-81
2023/10/12 21:42:40;;;;;;;62.58;36.53;;;;;;;15.07;nan;100960.22;10315716;28;20106;-81
2023/10/12 21:47:41;;;;;;;63.40;38.55;;;;;;;15.10;nan;100955.03;10351705;28;20129;-81
2023/10/12 21:52:42;;;;;;;58.42;34.60;;;;;;;14.90;nan;100946.53;10330854;28;21706;-80
2023/10/12 21:57:46;;;;;;;59.40;34.15;;;;;;;14.84;nan;100952.50;10325414;28;20117;-81
2023/10/12 22:02:54;;;;;;;59.75;35.67;;;;;;;15.04;nan;100945.22;10319012;28;22160;-82
2023/10/12 22:07:55;;;;;;;60.65;37.15;;;;;;;15.08;nan;100944.47;10351714;28;20140;-81
2023/10/12 22:13:05;;;;;;;63.88;35.35;;;;;;;15.11;nan;100951.56;10330977;28;20792;-81
2023/10/12 22:18:05;;;;;;;63.85;37.83;;;;;;;15.09;nan;100943.63;10306143;28;20041;-81
2023/10/12 22:23:06;;;;;;;59.92;33.95;;;;;;;15.08;nan;100931.28;10316402;28;20179;-81
2023/10/12 22:28:06;;;;;;;48.80;31.60;;;;;;;15.11;nan;100936.66;10299329;28;20487;-81
2023/10/12 22:33:10;;;;;;;77.13;38.17;;;;;;;15.10;nan;100936.59;10315898;28;20050;-80
2023/10/12 22:38:10;;;;;;;54.33;32.47;;;;;;;15.06;nan;100934.72;10330173;28;20045;-81
2023/10/12 22:43:11;;;;;;;55.15;34.90;;;;;;;15.08;nan;100936.56;10316699;28;20050;-80
2023/10/12 22:48:12;;;;;;;58.03;34.88;;;;;;;15.10;nan;100947.13;10327609;28;20049;-81
2023/10/12 22:53:13;;;;;;;47.35;31.30;;;;;;;15.05;nan;100944.38;10329441;28;20050;-81
2023/10/12 22:58:13;;;;;;;56.55;33.95;;;;;;;15.04;nan;100946.94;10314707;28;20046;-80
2023/10/12 23:03:14;;;;;;;56.08;33.53;;;;;;;15.03;nan;100948.69;10315526;28;20038;-81
2023/10/12 23:08:14;;;;;;;62.35;34.33;;;;;;;15.05;nan;100943.47;10331656;28;20048;-80
2023/10/12 23:13:15;;;;;;;58.22;32.45;;;;;;;15.14;nan;100953.41;10330812;28;20042;-83
2023/10/12 23:23:17;;;;;;;58.80;32.63;;;;;;;15.22;nan;100947.50;10312631;28;20052;-80
2023/10/12 23:28:18;;;;;;;50.20;31.13;;;;;;;15.17;nan;100942.97;10326707;28;21131;-81
2023/10/12 23:33:36;;;;;;;44.53;28.73;;;;;;;15.16;nan;100936.78;10327112;28;20087;-81
2023/10/12 23:39:00;;;;;;;52.75;29.55;;;;;;;15.20;nan;100940.41;10310835;28;20058;-80
2023/10/12 23:44:18;;;;;;;51.95;31.65;;;;;;;15.24;nan;100935.25;10296770;28;20570;-81
2023/10/12 23:49:42;;;;;;;52.78;28.75;;;;;;;15.28;nan;100938.91;10313028;28;20505;-80
2023/10/12 23:54:42;;;;;;;43.80;28.77;;;;;;;15.30;nan;100937.19;10318638;28;20057;-81
2023/10/12 23:59:43;;;;;;;47.78;30.30;;;;;;;15.37;nan;100932.97;10312093;28;20069;-83
